Portada
METAR-TAF:

METAR-TAF

Aeropuertos :

Aeropuerto de Catania-Fontanarossa

Catania, Italia

latitud: 37-28N, longitud: 015-03E, altitud: 11 m

Observación

El informe se hizo hace 22 minutos, a las 03:50 UTC
Viento 5 kt del suroeste
Temperatura 5°C
Humedad 100%
Presión 1019 hPa
Visibilidad 10 km o más
sin nubes por debajo de 1500 m y sin presencia de cumulonimbus.

METAR: LICC 250350Z 23005KT CAVOK 05/05 Q1019

Hora: 05:12 (04:12 UTC)

Pronóstico

El informe se hizo hace 11 horas y 12 minutos, a las 17:00 UTC
Pronóstico válido del 24 a las 18 UTC al 25 a las 18 UTC
Viento 6 kt del oeste-suroeste
Visibilidad 10 km o más
sin nubes por debajo de 1500 m y sin presencia de cumulonimbus.
Evolucionando progresivamente
del 25 a las 09 UTC al 25 a las 11 UTC
Viento 8 kt del este
Evolucionando progresivamente
del 25 a las 16 UTC al 25 a las 18 UTC
Viento 10 kt del oeste-suroeste

TAF: LICC 241700Z 2418/2518 25006KT CAVOK BECMG 2509/2511 08008KT BECMG 2516/2518 25010KT

Observaciones y pronósticos meteorológicos de más de 4000 aeropuertos (mensajes METAR y TAF).

Los puntos amarillos y rojos representan las estaciones disponibles.

Ponga el ratón en el punto deseado para ver el nombre de la estación.

Haga clic para ver las observaciones y los pronósticos meteorológicos.

Para cambiar el mapa : haga clic en los botones verdes con una cruz de color negro para hacer un zoom, en el botón verde con un guión para alejar o en las flechas verdes para mapas adyacentes.


METAR-TAF: